createdAt,value
2022-09-23T00:01:05.038Z,12.23
2022-09-23T00:03:32.946Z,14.02
2022-09-23T00:06:01.860Z,11.70
2022-09-23T00:08:29.469Z,11.00
2022-09-23T00:10:56.410Z,12.27
2022-09-23T00:13:24.715Z,12.27
2022-09-23T00:15:52.022Z,13.23
2022-09-23T00:18:20.559Z,12.15
2022-09-23T00:20:47.283Z,11.35
2022-09-23T00:23:13.805Z,12.68
2022-09-23T00:25:40.198Z,13.38
2022-09-23T00:28:06.537Z,11.82
2022-09-23T00:30:32.998Z,11.18
2022-09-23T00:33:00.234Z,11.43
2022-09-23T00:35:26.790Z,10.65
2022-09-23T00:37:53.194Z,12.02
2022-09-23T00:40:19.607Z,11.07
2022-09-23T00:42:51.180Z,10.10
2022-09-23T00:45:17.784Z,11.88
2022-09-23T00:48:02.298Z,11.35
2022-09-23T00:50:36.107Z,10.65
2022-09-23T00:53:09.727Z,11.88
2022-09-23T00:55:49.187Z,10.45
2022-09-23T00:58:18.993Z,10.53
2022-09-23T01:00:46.788Z,12.98
2022-09-23T01:03:14.464Z,12.20
2022-09-23T01:05:42.383Z,11.05
2022-09-23T01:08:11.906Z,13.13
2022-09-23T01:10:50.451Z,12.10
2022-09-23T01:13:36.575Z,11.50
2022-09-23T01:16:16.464Z,11.38
2022-09-23T01:19:09.348Z,11.75
2022-09-23T01:21:49.788Z,12.48
2022-09-23T01:24:25.003Z,12.23
2022-09-23T01:27:28.920Z,11.73
2022-09-23T01:30:32.880Z,12.27
2022-09-23T01:33:08.768Z,11.50
2022-09-23T01:36:10.059Z,11.05
2022-09-23T01:38:59.188Z,11.77
2022-09-23T01:41:37.484Z,10.80
2022-09-23T01:44:11.269Z,11.93
2022-09-23T01:46:46.378Z,12.77
2022-09-23T01:49:22.037Z,10.13
2022-09-23T01:51:54.859Z,10.10
2022-09-23T01:54:46.243Z,10.20
2022-09-23T01:57:15.708Z,11.15
2022-09-23T01:59:48.567Z,10.10
2022-09-23T02:02:28.336Z,11.85
2022-09-23T02:05:04.088Z,12.70
2022-09-23T02:07:35.395Z,11.27
2022-09-23T02:10:21.593Z,13.18
2022-09-23T02:12:50.213Z,13.40
2022-09-23T02:15:21.133Z,13.32
2022-09-23T02:17:54.287Z,14.50
2022-09-23T02:20:29.556Z,14.20
2022-09-23T02:23:16.629Z,13.55
2022-09-23T02:25:51.115Z,13.82
2022-09-23T02:28:24.072Z,14.52
2022-09-23T02:31:07.311Z,14.03
2022-09-23T02:33:39.257Z,12.73
2022-09-23T02:36:12.495Z,12.70
2022-09-23T02:38:46.588Z,11.15
2022-09-23T02:41:38.974Z,12.27
2022-09-23T02:44:16.294Z,12.45
2022-09-23T02:46:43.600Z,12.45
2022-09-23T02:49:17.478Z,12.27
2022-09-23T02:51:44.709Z,12.27
2022-09-23T02:54:14.909Z,12.40
2022-09-23T02:56:41.567Z,11.70
2022-09-23T02:59:09.478Z,13.80
2022-09-23T03:01:57.925Z,13.50
2022-09-23T03:04:54.749Z,11.55
2022-09-23T03:07:33.119Z,11.52
2022-09-23T03:10:14.614Z,11.00
2022-09-23T03:12:52.845Z,11.88
2022-09-23T03:15:51.605Z,11.98
2022-09-23T03:18:31.684Z,11.40
2022-09-23T03:21:11.446Z,11.38
2022-09-23T03:23:40.558Z,11.20
2022-09-23T03:26:35.346Z,11.13
2022-09-23T03:29:09.355Z,12.40
2022-09-23T03:31:38.715Z,11.40
2022-09-23T03:34:12.628Z,10.38
2022-09-23T03:36:53.292Z,12.88
2022-09-23T03:39:44.366Z,12.45
2022-09-23T03:42:16.941Z,11.45
2022-09-23T03:44:45.544Z,12.38
2022-09-23T03:47:14.522Z,10.73
2022-09-23T03:49:44.387Z,10.83
2022-09-23T03:52:11.157Z,10.32
2022-09-23T03:54:37.626Z,12.82
2022-09-23T03:57:04.281Z,11.10
2022-09-23T03:59:30.913Z,11.30
2022-09-23T04:01:59.500Z,9.87
2022-09-23T04:04:27.518Z,11.13
2022-09-23T04:06:55.171Z,10.70
2022-09-23T04:09:22.802Z,10.25
2022-09-23T04:11:50.526Z,11.95
2022-09-23T04:14:18.648Z,10.60
2022-09-23T04:16:46.174Z,11.00
2022-09-23T04:19:13.413Z,11.07
2022-09-23T04:21:41.325Z,10.90
2022-09-23T04:24:08.563Z,10.05
2022-09-23T04:26:35.990Z,9.13
2022-09-23T04:29:03.402Z,10.40
2022-09-23T04:31:29.868Z,11.65
2022-09-23T04:33:56.333Z,9.32
2022-09-23T04:36:23.034Z,8.88
2022-09-23T04:38:50.186Z,10.63
2022-09-23T04:41:17.765Z,10.00
2022-09-23T04:43:45.462Z,9.70
2022-09-23T04:46:13.822Z,9.55
2022-09-23T04:48:41.600Z,9.95
2022-09-23T04:51:20.252Z,10.47
2022-09-23T04:53:49.680Z,10.77
2022-09-23T04:56:24.454Z,13.38
2022-09-23T04:58:52.174Z,12.68
2022-09-23T05:01:27.462Z,11.02
2022-09-23T05:04:02.283Z,11.43
2022-09-23T05:06:31.422Z,13.00
2022-09-23T05:08:58.804Z,12.68
2022-09-23T05:11:26.073Z,12.52
2022-09-23T05:13:54.521Z,12.65
2022-09-23T05:16:23.181Z,12.63
2022-09-23T05:18:50.780Z,15.25
2022-09-23T05:21:20.184Z,17.83
2022-09-23T05:23:54.984Z,13.95
2022-09-23T05:26:23.496Z,14.50
2022-09-23T05:28:49.917Z,14.43
2022-09-23T05:31:20.455Z,14.20
2022-09-23T05:33:52.859Z,14.75
2022-09-23T05:36:21.130Z,14.50
2022-09-23T05:38:49.744Z,14.48
2022-09-23T05:41:18.258Z,14.97
2022-09-23T05:43:45.199Z,13.38
2022-09-23T05:46:15.396Z,13.85
2022-09-23T05:48:43.006Z,14.05
2022-09-23T05:51:13.545Z,13.63
2022-09-23T05:53:41.621Z,13.48
2022-09-23T05:56:08.232Z,15.13
2022-09-23T05:58:34.731Z,16.33
2022-09-23T06:01:01.150Z,16.15
2022-09-23T06:03:27.645Z,17.70
2022-09-23T06:05:55.265Z,15.77
2022-09-23T06:08:23.664Z,17.27
2022-09-23T06:10:54.403Z,16.17
2022-09-23T06:13:26.002Z,17.13
2022-09-23T06:15:58.172Z,18.70
2022-09-23T06:18:24.665Z,17.88
2022-09-23T06:20:51.477Z,17.98
2022-09-23T06:23:17.842Z,16.55
2022-09-23T06:25:44.197Z,14.85
2022-09-23T06:28:12.138Z,14.60
2022-09-23T06:30:42.490Z,13.23
2022-09-23T06:33:10.011Z,12.40
2022-09-23T06:35:36.416Z,15.32
2022-09-23T06:38:04.497Z,13.07
2022-09-23T06:40:31.288Z,12.15
2022-09-23T06:42:59.290Z,12.55
2022-09-23T06:45:25.942Z,11.32
2022-09-23T06:47:56.475Z,15.15
2022-09-23T06:50:24.379Z,12.55
2022-09-23T06:52:52.222Z,14.70
2022-09-23T06:55:18.653Z,10.77
2022-09-23T06:57:45.044Z,9.52
2022-09-23T07:00:13.177Z,9.85
2022-09-23T07:02:42.111Z,10.20
2022-09-23T07:05:09.439Z,9.32
2022-09-23T07:07:38.188Z,9.82
2022-09-23T07:10:05.873Z,9.57
2022-09-23T07:12:33.398Z,9.20
2022-09-23T07:14:59.767Z,11.63
2022-09-23T07:17:26.920Z,10.10
2022-09-23T07:19:54.931Z,10.63
2022-09-23T07:22:26.386Z,10.95
2022-09-23T07:24:56.681Z,12.32
2022-09-23T07:27:27.955Z,9.32
2022-09-23T07:29:54.993Z,11.55
2022-09-23T07:32:22.935Z,9.20
2022-09-23T07:34:49.670Z,8.98
2022-09-23T07:37:17.363Z,9.73
2022-09-23T07:39:45.025Z,9.75
2022-09-23T07:42:13.189Z,9.23
2022-09-23T07:44:45.633Z,10.85
2022-09-23T07:47:12.006Z,10.07
2022-09-23T07:49:38.442Z,9.10
2022-09-23T07:52:05.096Z,9.88
2022-09-23T07:54:32.137Z,9.88
2022-09-23T07:56:59.757Z,8.40
2022-09-23T07:59:27.208Z,9.80
2022-09-23T08:01:54.845Z,9.43
2022-09-23T08:04:22.859Z,9.63
2022-09-23T08:07:00.778Z,9.10
2022-09-23T08:09:31.853Z,9.35
2022-09-23T08:11:58.446Z,9.18
2022-09-23T08:14:24.909Z,9.98
2022-09-23T08:16:52.241Z,9.00
2022-09-23T08:19:18.837Z,10.43
2022-09-23T08:21:47.379Z,10.50
2022-09-23T08:24:16.936Z,9.30
2022-09-23T08:26:44.741Z,8.00
2022-09-23T08:29:15.861Z,9.20
2022-09-23T08:31:42.783Z,7.72
2022-09-23T08:34:10.735Z,9.48
2022-09-23T08:36:37.819Z,10.25
2022-09-23T08:39:05.201Z,9.25
2022-09-23T08:41:37.341Z,10.93
2022-09-23T08:44:11.907Z,8.98
2022-09-23T08:46:46.472Z,8.15
2022-09-23T08:49:20.426Z,8.35
2022-09-23T08:51:48.466Z,11.90
2022-09-23T08:54:17.701Z,8.50
2022-09-23T08:56:49.082Z,8.88
2022-09-23T08:59:40.402Z,10.48
2022-09-23T09:02:17.819Z,8.70
2022-09-23T09:04:47.636Z,8.23
2022-09-23T09:07:36.376Z,6.95
2022-09-23T09:10:16.592Z,7.85
2022-09-23T09:12:55.132Z,6.88
2022-09-23T09:15:24.958Z,6.78
2022-09-23T09:18:11.393Z,7.43
2022-09-23T09:21:08.442Z,6.57
2022-09-23T09:23:43.041Z,7.28
2022-09-23T09:26:19.547Z,8.75
2022-09-23T09:29:31.250Z,6.78
2022-09-23T09:31:57.639Z,7.10
2022-09-23T09:34:33.538Z,8.27
2022-09-23T09:37:07.142Z,8.43
2022-09-23T09:39:35.610Z,7.43
2022-09-23T09:42:03.635Z,7.10
2022-09-23T09:44:41.673Z,8.43
2022-09-23T09:47:40.532Z,8.55
2022-09-23T09:50:32.858Z,6.85
2022-09-23T09:53:25.517Z,9.15
2022-09-23T09:56:09.884Z,6.75
2022-09-23T09:58:46.900Z,6.90
2022-09-23T10:01:22.083Z,7.38
2022-09-23T10:03:53.044Z,6.25
2022-09-23T10:06:35.653Z,6.28
2022-09-23T10:09:02.103Z,6.78
2022-09-23T10:11:29.480Z,6.35
2022-09-23T10:14:12.663Z,6.38
2022-09-23T10:16:41.429Z,6.03
2022-09-23T10:19:29.207Z,6.45
2022-09-23T10:22:00.228Z,5.20
2022-09-23T10:24:30.483Z,6.47
2022-09-23T10:27:01.674Z,5.80
2022-09-23T10:29:36.722Z,6.15
2022-09-23T10:32:30.676Z,6.15
2022-09-23T10:35:09.281Z,5.60
2022-09-23T10:37:40.558Z,8.60
2022-09-23T10:40:35.412Z,6.40
2022-09-23T10:43:37.880Z,5.55
2022-09-23T10:46:27.298Z,5.88
2022-09-23T10:49:18.592Z,5.55
2022-09-23T10:51:51.685Z,5.68
2022-09-23T10:54:51.107Z,5.97
2022-09-23T10:57:45.032Z,5.82
2022-09-23T11:00:17.713Z,5.45
2022-09-23T11:03:25.362Z,7.05
2022-09-23T11:06:16.750Z,5.28
2022-09-23T11:08:51.363Z,8.02
2022-09-23T11:11:26.679Z,5.93
2022-09-23T11:14:17.757Z,5.38
2022-09-23T11:17:14.561Z,6.05
2022-09-23T11:20:09.703Z,5.88
2022-09-23T11:23:05.635Z,5.60
2022-09-23T11:25:34.768Z,6.05
2022-09-23T11:28:23.470Z,5.60
2022-09-23T11:31:10.042Z,5.88
2022-09-23T11:34:01.645Z,5.60
2022-09-23T11:36:36.361Z,5.70
2022-09-23T11:39:17.932Z,6.82
2022-09-23T11:41:44.900Z,7.65
2022-09-23T11:44:23.464Z,6.25
2022-09-23T11:46:59.423Z,5.38
2022-09-23T11:49:45.996Z,6.28
2022-09-23T11:52:19.573Z,6.03
2022-09-23T11:55:07.710Z,5.82
2022-09-23T11:57:48.501Z,6.43
2022-09-23T12:00:19.799Z,5.82
2022-09-23T12:03:00.365Z,5.95
2022-09-23T12:05:35.330Z,5.80
2022-09-23T12:08:10.334Z,5.72
2022-09-23T12:10:54.737Z,5.50
2022-09-23T12:13:44.156Z,6.25
2022-09-23T12:16:16.817Z,5.30
2022-09-23T12:18:55.351Z,6.65
2022-09-23T12:21:50.767Z,6.07
2022-09-23T12:24:20.586Z,6.05
2022-09-23T12:26:53.191Z,8.77
2022-09-23T12:29:20.422Z,5.78
2022-09-23T12:31:48.137Z,6.40
2022-09-23T12:34:29.937Z,6.70
2022-09-23T12:37:06.087Z,8.43
2022-09-23T12:39:38.531Z,5.57
2022-09-23T12:42:10.859Z,5.43
2022-09-23T12:44:41.925Z,6.82
2022-09-23T12:47:14.210Z,6.10
2022-09-23T12:49:42.706Z,5.53
2022-09-23T12:52:11.834Z,6.95
2022-09-23T12:54:42.750Z,5.72
2022-09-23T12:57:12.976Z,6.57
2022-09-23T12:59:52.359Z,6.10
2022-09-23T13:02:40.889Z,5.18
2022-09-23T13:05:43.695Z,5.57
2022-09-23T13:08:19.445Z,5.40
2022-09-23T13:10:54.846Z,5.65
2022-09-23T13:13:35.643Z,5.28
2022-09-23T13:16:29.306Z,5.38
2022-09-23T13:19:00.765Z,7.25
2022-09-23T13:21:42.312Z,7.20
2022-09-23T13:24:31.041Z,6.55
2022-09-23T13:27:06.708Z,5.35
2022-09-23T13:29:50.085Z,4.90
2022-09-23T13:32:20.231Z,5.47
2022-09-23T13:34:57.925Z,5.00
2022-09-23T13:37:31.320Z,5.70
2022-09-23T13:40:19.804Z,7.20
2022-09-23T13:43:11.818Z,4.72
2022-09-23T13:45:43.007Z,4.90
2022-09-23T13:48:15.140Z,5.10
2022-09-23T13:50:49.293Z,4.80
2022-09-23T13:53:34.047Z,4.82
2022-09-23T13:56:05.787Z,5.82
2022-09-23T13:58:34.369Z,5.10
2022-09-23T14:01:01.245Z,5.28
2022-09-23T14:03:36.885Z,5.55
2022-09-23T14:06:14.679Z,4.88
2022-09-23T14:08:45.055Z,4.95
2022-09-23T14:11:31.947Z,5.00
2022-09-23T14:14:00.835Z,4.90
2022-09-23T14:16:28.145Z,4.82
2022-09-23T14:18:59.831Z,5.47
2022-09-23T14:21:37.179Z,5.22
2022-09-23T14:24:20.018Z,5.07
2022-09-23T14:27:08.645Z,5.10
2022-09-23T14:29:40.401Z,5.00
2022-09-23T14:32:17.309Z,6.25
2022-09-23T14:35:04.416Z,5.30
2022-09-23T14:37:55.539Z,4.90
2022-09-23T14:40:26.161Z,5.30
2022-09-23T14:42:57.711Z,4.40
2022-09-23T14:45:26.634Z,6.25
2022-09-23T14:48:22.447Z,4.97
2022-09-23T14:51:16.094Z,5.13
2022-09-23T14:53:46.285Z,4.82
2022-09-23T14:56:18.755Z,5.60
2022-09-23T14:58:52.406Z,5.35
2022-09-23T15:01:31.324Z,4.95
2022-09-23T15:03:59.659Z,5.10
2022-09-23T15:06:27.219Z,5.03
2022-09-23T15:08:55.576Z,5.25
2022-09-23T15:11:22.529Z,5.65
2022-09-23T15:13:52.697Z,7.35
2022-09-23T15:16:30.102Z,7.72
2022-09-23T15:18:59.751Z,6.60
2022-09-23T15:21:42.704Z,6.80
2022-09-23T15:24:35.867Z,7.10
2022-09-23T15:27:02.758Z,7.07
2022-09-23T15:29:29.987Z,7.80
2022-09-23T15:31:56.728Z,7.13
2022-09-23T15:34:23.146Z,9.25
2022-09-23T15:36:49.628Z,7.82
2022-09-23T15:39:16.043Z,6.00
2022-09-23T15:41:43.341Z,9.38
2022-09-23T15:44:14.740Z,8.55
2022-09-23T15:46:49.906Z,8.68
2022-09-23T15:49:26.097Z,8.02
2022-09-23T15:51:53.295Z,8.15
2022-09-23T15:54:19.785Z,12.70
2022-09-23T15:56:46.200Z,10.65
2022-09-23T15:59:13.564Z,9.57
2022-09-23T16:01:42.097Z,10.23
2022-09-23T16:04:09.862Z,7.38
2022-09-23T16:06:37.521Z,8.93
2022-09-23T16:09:03.989Z,8.95
2022-09-23T16:11:34.441Z,8.95
2022-09-23T16:14:01.262Z,10.95
2022-09-23T16:16:28.283Z,9.45
2022-09-23T16:18:54.841Z,9.95
2022-09-23T16:21:24.294Z,11.43
2022-09-23T16:23:51.407Z,10.73
2022-09-23T16:26:20.694Z,13.80
2022-09-23T16:28:48.937Z,14.45
2022-09-23T16:31:16.295Z,19.38
2022-09-23T16:33:43.869Z,20.17
2022-09-23T16:36:17.648Z,20.42
2022-09-23T16:38:44.383Z,24.33
2022-09-23T16:41:11.615Z,28.30
2022-09-23T16:43:39.724Z,20.33
2022-09-23T16:46:09.009Z,17.75
2022-09-23T16:48:40.718Z,20.20
2022-09-23T16:51:15.753Z,17.42
2022-09-23T16:53:42.688Z,19.65
2022-09-23T16:56:11.376Z,18.25
2022-09-23T16:58:38.911Z,20.17
2022-09-23T17:01:25.959Z,19.85
2022-09-23T17:03:53.196Z,19.38
2022-09-23T17:06:19.579Z,17.92
2022-09-23T17:08:48.271Z,19.58
2022-09-23T17:11:16.412Z,18.83
2022-09-23T17:13:44.210Z,17.13
2022-09-23T17:16:20.914Z,18.52
2022-09-23T17:18:47.341Z,16.05
2022-09-23T17:21:13.792Z,19.45
2022-09-23T17:23:40.233Z,18.48
2022-09-23T17:26:09.733Z,16.60
2022-09-23T17:28:36.344Z,18.33
2022-09-23T17:31:06.420Z,20.48
2022-09-23T17:33:37.352Z,28.02
2022-09-23T17:36:09.151Z,25.90
2022-09-23T17:38:35.998Z,25.90
2022-09-23T17:41:02.521Z,27.23
2022-09-23T17:43:31.360Z,32.95
2022-09-23T17:46:06.338Z,27.85
2022-09-23T17:48:34.840Z,29.48
2022-09-23T17:51:04.546Z,27.00
2022-09-23T17:53:35.302Z,25.80
2022-09-23T17:56:04.541Z,24.35
2022-09-23T17:58:33.476Z,23.65
2022-09-23T18:00:59.930Z,22.52
2022-09-23T18:03:27.657Z,20.40
2022-09-23T18:05:54.591Z,18.35
2022-09-23T18:08:21.285Z,20.45
2022-09-23T18:10:47.681Z,17.00
2022-09-23T18:13:14.505Z,15.85
2022-09-23T18:15:40.963Z,15.68
2022-09-23T18:18:07.555Z,15.05
2022-09-23T18:20:34.085Z,15.48
2022-09-23T18:23:00.458Z,15.27
2022-09-23T18:25:39.048Z,13.32
2022-09-23T18:28:06.155Z,15.18
2022-09-23T18:30:33.347Z,15.77
2022-09-23T18:32:59.854Z,17.35
2022-09-23T18:35:26.510Z,16.67
2022-09-23T18:37:52.907Z,14.60
2022-09-23T18:40:19.350Z,13.88
2022-09-23T18:42:45.794Z,13.73
2022-09-23T18:45:12.198Z,15.32
2022-09-23T18:47:57.352Z,15.25
2022-09-23T18:50:43.619Z,13.65
2022-09-23T18:53:10.443Z,14.88
2022-09-23T18:55:37.153Z,15.93
2022-09-23T18:58:04.075Z,15.63
2022-09-23T19:00:30.510Z,15.65
2022-09-23T19:02:57.591Z,16.00
2022-09-23T19:05:24.000Z,15.43
2022-09-23T19:07:51.268Z,14.27
2022-09-23T19:10:19.149Z,14.35
2022-09-23T19:12:46.704Z,14.85
2022-09-23T19:15:14.095Z,13.55
2022-09-23T19:17:40.451Z,13.93
2022-09-23T19:20:07.543Z,14.40
2022-09-23T19:22:34.497Z,13.63
2022-09-23T19:25:00.872Z,15.55
2022-09-23T19:27:27.261Z,15.35
2022-09-23T19:29:53.768Z,14.57
2022-09-23T19:32:21.072Z,15.73
2022-09-23T19:34:47.836Z,15.52
2022-09-23T19:37:14.431Z,13.75
2022-09-23T19:39:40.861Z,15.30
2022-09-23T19:42:07.640Z,13.93
2022-09-23T19:44:37.664Z,16.75
2022-09-23T19:47:04.077Z,17.10
2022-09-23T19:49:31.017Z,13.82
2022-09-23T19:51:57.446Z,15.05
2022-09-23T19:54:26.779Z,14.77
2022-09-23T19:56:53.283Z,18.67
2022-09-23T19:59:19.803Z,17.45
2022-09-23T20:01:48.003Z,19.75
2022-09-23T20:04:15.658Z,21.13
2022-09-23T20:06:42.323Z,20.00
2022-09-23T20:09:08.766Z,22.83
2022-09-23T20:11:35.745Z,21.40
2022-09-23T20:14:04.612Z,21.65
2022-09-23T20:16:34.094Z,21.25
2022-09-23T20:19:01.877Z,20.92
2022-09-23T20:21:29.375Z,22.23
2022-09-23T20:23:56.838Z,22.15
2022-09-23T20:26:41.872Z,23.42
2022-09-23T20:29:08.948Z,23.70
2022-09-23T20:31:35.483Z,23.42
2022-09-23T20:34:05.490Z,23.98
2022-09-23T20:36:32.906Z,24.73
2022-09-23T20:39:01.602Z,23.85
2022-09-23T20:41:29.711Z,23.77
2022-09-23T20:43:59.324Z,24.10
2022-09-23T20:46:26.686Z,25.70
2022-09-23T20:48:54.236Z,25.98
2022-09-23T20:51:20.913Z,23.52
2022-09-23T20:53:53.979Z,23.20
2022-09-23T20:56:21.494Z,22.83
2022-09-23T20:58:48.653Z,24.38
2022-09-23T21:01:15.788Z,22.23
2022-09-23T21:03:44.760Z,23.02
2022-09-23T21:06:13.834Z,27.63
2022-09-23T21:08:41.227Z,30.77
2022-09-23T21:11:14.847Z,26.85
2022-09-23T21:13:47.053Z,25.53
2022-09-23T21:16:17.943Z,29.75
2022-09-23T21:18:45.035Z,28.85
2022-09-23T21:21:14.001Z,29.50
2022-09-23T21:23:41.700Z,34.08
2022-09-23T21:26:10.935Z,34.00
2022-09-23T21:28:48.752Z,31.70
2022-09-23T21:31:36.287Z,30.70
2022-09-23T21:34:08.597Z,28.50
2022-09-23T21:36:37.279Z,23.13
2022-09-23T21:39:09.082Z,23.90
2022-09-23T21:41:35.792Z,22.08
2022-09-23T21:44:04.521Z,22.38
2022-09-23T21:46:33.517Z,23.45
2022-09-23T21:49:01.929Z,23.20
2022-09-23T21:51:38.524Z,23.10
2022-09-23T21:54:05.680Z,21.40
2022-09-23T21:56:35.072Z,20.88
2022-09-23T21:59:02.100Z,22.45
2022-09-23T22:01:33.123Z,26.20
2022-09-23T22:04:07.795Z,22.75
2022-09-23T22:06:37.403Z,21.40
2022-09-23T22:09:10.995Z,22.48
2022-09-23T22:11:57.559Z,19.52
2022-09-23T22:14:25.737Z,20.92
2022-09-23T22:16:55.886Z,18.65
2022-09-23T22:19:25.942Z,20.73
2022-09-23T22:21:53.583Z,18.08
2022-09-23T22:24:20.205Z,19.05
2022-09-23T22:26:47.026Z,18.92
2022-09-23T22:29:34.102Z,19.25
2022-09-23T22:32:21.017Z,19.05
2022-09-23T22:34:51.472Z,21.00
2022-09-23T22:37:27.750Z,21.77
2022-09-23T22:39:54.793Z,20.88
2022-09-23T22:42:22.231Z,19.92
2022-09-23T22:44:49.284Z,18.00
2022-09-23T22:47:17.539Z,18.38
2022-09-23T22:49:44.012Z,18.70
2022-09-23T22:52:11.209Z,20.15
2022-09-23T22:54:37.928Z,18.80
2022-09-23T22:57:05.771Z,18.33
2022-09-23T22:59:32.163Z,17.77
2022-09-23T23:02:02.851Z,20.83
2022-09-23T23:04:30.032Z,20.55
2022-09-23T23:06:57.956Z,18.50
2022-09-23T23:09:24.365Z,22.58
2022-09-23T23:11:50.770Z,17.25
2022-09-23T23:14:18.082Z,17.80
2022-09-23T23:16:45.980Z,17.85
2022-09-23T23:19:16.473Z,18.52
2022-09-23T23:21:43.837Z,17.90
2022-09-23T23:24:18.613Z,18.23
2022-09-23T23:26:45.312Z,18.13
2022-09-23T23:29:13.672Z,17.48
2022-09-23T23:31:40.789Z,16.85
2022-09-23T23:34:10.587Z,16.13
2022-09-23T23:36:37.369Z,18.15
2022-09-23T23:39:04.008Z,16.02
2022-09-23T23:41:31.216Z,18.65
2022-09-23T23:44:00.196Z,17.70
2022-09-23T23:46:28.671Z,15.70
2022-09-23T23:48:56.997Z,16.98
2022-09-23T23:51:26.228Z,18.30
2022-09-23T23:53:53.901Z,17.58
2022-09-23T23:56:23.332Z,16.05
2022-09-23T23:58:57.947Z,16.60
